createdAt,value
2022-12-04T00:00:02.334Z,1.53
2022-12-04T00:01:02.305Z,1.53
2022-12-04T00:02:02.320Z,1.53
2022-12-04T00:03:02.347Z,1.52
2022-12-04T00:04:02.283Z,1.52
2022-12-04T00:05:02.334Z,1.51
2022-12-04T00:06:02.257Z,1.51
2022-12-04T00:07:02.249Z,1.50
2022-12-04T00:08:02.309Z,1.51
2022-12-04T00:09:02.216Z,1.51
2022-12-04T00:10:02.197Z,1.52
2022-12-04T00:11:02.189Z,1.53
2022-12-04T00:12:02.175Z,1.53
2022-12-04T00:13:02.160Z,1.54
2022-12-04T00:14:06.932Z,1.55
2022-12-04T00:16:02.282Z,1.56
2022-12-04T00:17:02.111Z,1.57
2022-12-04T00:18:02.131Z,1.58
2022-12-04T00:19:02.124Z,1.59
2022-12-04T00:20:02.070Z,1.59
2022-12-04T00:21:02.054Z,1.59
2022-12-04T00:22:02.048Z,1.59
2022-12-04T00:23:02.024Z,1.58
2022-12-04T00:24:02.018Z,1.58
2022-12-04T00:25:02.013Z,1.57
2022-12-04T00:26:02.003Z,1.57
2022-12-04T00:27:01.993Z,1.56
2022-12-04T00:28:01.971Z,1.55
2022-12-04T00:29:01.957Z,1.54
2022-12-04T00:30:01.945Z,1.52
2022-12-04T00:31:01.941Z,1.50
2022-12-04T00:32:02.012Z,1.48
2022-12-04T00:33:01.916Z,1.46
2022-12-04T00:34:02.267Z,1.43
2022-12-04T00:35:01.885Z,1.41
2022-12-04T00:36:01.869Z,1.40
2022-12-04T00:37:01.870Z,1.39
2022-12-04T00:38:01.850Z,1.38
2022-12-04T00:39:01.835Z,1.38
2022-12-04T00:40:01.840Z,1.38
2022-12-04T00:41:01.802Z,1.38
2022-12-04T00:42:01.808Z,1.38
2022-12-04T00:43:01.777Z,1.38
2022-12-04T00:44:01.784Z,1.38
2022-12-04T00:45:01.778Z,1.39
2022-12-04T00:46:01.844Z,1.40
2022-12-04T00:47:01.744Z,1.41
2022-12-04T00:48:01.716Z,1.41
2022-12-04T00:49:01.708Z,1.41
2022-12-04T00:50:01.688Z,1.41
2022-12-04T00:51:01.686Z,1.41
2022-12-04T00:52:01.685Z,1.42
2022-12-04T00:53:01.688Z,1.43
2022-12-04T00:54:01.655Z,1.45
2022-12-04T00:55:01.624Z,1.46
2022-12-04T00:56:01.622Z,1.47
2022-12-04T00:57:01.618Z,1.48
2022-12-04T00:58:01.592Z,1.49
2022-12-04T00:59:01.568Z,1.49
2022-12-04T01:00:01.566Z,1.49
2022-12-04T01:01:01.597Z,1.48
2022-12-04T01:02:01.565Z,1.47
2022-12-04T01:03:01.618Z,1.46
2022-12-04T01:04:01.520Z,1.45
2022-12-04T01:05:01.496Z,1.44
2022-12-04T01:06:01.488Z,1.44
2022-12-04T01:07:04.932Z,1.44
2022-12-04T01:08:01.551Z,1.44
2022-12-04T01:09:01.463Z,1.45
2022-12-04T01:10:01.442Z,1.46
2022-12-04T01:11:01.467Z,1.47
2022-12-04T01:12:01.421Z,1.48
2022-12-04T01:13:01.413Z,1.50
2022-12-04T01:14:01.426Z,1.51
2022-12-04T01:15:01.406Z,1.51
2022-12-04T01:16:01.428Z,1.52
2022-12-04T01:17:01.429Z,1.52
2022-12-04T01:18:01.334Z,1.52
2022-12-04T01:19:01.316Z,1.52
2022-12-04T01:20:01.323Z,1.52
2022-12-04T01:21:01.305Z,1.52
2022-12-04T01:22:01.294Z,1.52
2022-12-04T01:23:01.273Z,1.50
2022-12-04T01:24:01.259Z,1.49
2022-12-04T01:25:01.267Z,1.48
2022-12-04T01:26:01.233Z,1.47
2022-12-04T01:27:01.238Z,1.46
2022-12-04T01:28:01.232Z,1.45
2022-12-04T01:29:01.229Z,1.45
2022-12-04T01:30:01.188Z,1.44
2022-12-04T01:31:01.169Z,1.44
2022-12-04T01:32:01.226Z,1.44
2022-12-04T01:33:01.151Z,1.44
2022-12-04T01:34:01.140Z,1.45
2022-12-04T01:35:01.126Z,1.46
2022-12-04T01:36:01.118Z,1.47
2022-12-04T01:37:01.136Z,1.48
2022-12-04T01:38:01.086Z,1.49
2022-12-04T01:39:01.073Z,1.49
2022-12-04T01:40:01.068Z,1.50
2022-12-04T01:41:01.068Z,1.50
2022-12-04T01:42:01.035Z,1.50
2022-12-04T01:43:01.027Z,1.50
2022-12-04T01:44:01.031Z,1.51
2022-12-04T01:45:01.008Z,1.50
2022-12-04T01:46:01.101Z,1.50
2022-12-04T01:47:00.981Z,1.48
2022-12-04T01:48:00.959Z,1.46
2022-12-04T01:49:00.945Z,1.45
2022-12-04T01:50:00.938Z,1.44
2022-12-04T01:51:00.926Z,1.43
2022-12-04T01:52:00.945Z,1.43
2022-12-04T01:53:00.888Z,1.43
2022-12-04T01:54:00.918Z,1.43
2022-12-04T01:55:00.867Z,1.44
2022-12-04T01:56:00.890Z,1.43
2022-12-04T01:57:00.853Z,1.43
2022-12-04T01:58:00.843Z,1.43
2022-12-04T01:59:00.814Z,1.43
2022-12-04T02:00:00.828Z,1.42
2022-12-04T02:01:05.147Z,1.42
2022-12-04T02:02:00.948Z,1.42
2022-12-04T02:03:00.824Z,1.42
2022-12-04T02:04:00.760Z,1.42
2022-12-04T02:05:00.737Z,1.43
2022-12-04T02:06:00.730Z,1.44
2022-12-04T02:07:00.741Z,1.45
2022-12-04T02:08:00.815Z,1.46
2022-12-04T02:09:00.687Z,1.47
2022-12-04T02:10:00.680Z,1.48
2022-12-04T02:11:00.670Z,1.49
2022-12-04T02:12:00.675Z,1.50
2022-12-04T02:13:00.656Z,1.51
2022-12-04T02:14:00.640Z,1.51
2022-12-04T02:15:00.622Z,1.52
2022-12-04T02:16:00.622Z,1.52
2022-12-04T02:17:00.642Z,1.53
2022-12-04T02:18:00.582Z,1.53
2022-12-04T02:19:00.584Z,1.53
2022-12-04T02:20:00.568Z,1.52
2022-12-04T02:21:00.582Z,1.51
2022-12-04T02:22:00.549Z,1.49
2022-12-04T02:23:00.507Z,1.48
2022-12-04T02:24:00.508Z,1.48
2022-12-04T02:25:00.514Z,1.48
2022-12-04T02:26:00.484Z,1.49
2022-12-04T02:27:00.465Z,1.49
2022-12-04T02:28:00.467Z,1.48
2022-12-04T02:29:00.446Z,1.47
2022-12-04T02:30:00.426Z,1.46
2022-12-04T02:31:00.460Z,1.46
2022-12-04T02:32:00.407Z,1.45
2022-12-04T02:33:00.386Z,1.44
2022-12-04T02:34:00.389Z,1.42
2022-12-04T02:35:00.352Z,1.41
2022-12-04T02:36:00.345Z,1.40
2022-12-04T02:37:00.354Z,1.40
2022-12-04T02:38:00.321Z,1.40
2022-12-04T02:39:00.313Z,1.40
2022-12-04T02:40:00.325Z,1.40
2022-12-04T02:41:00.277Z,1.40
2022-12-04T02:42:00.272Z,1.41
2022-12-04T02:43:00.272Z,1.42
2022-12-04T02:44:00.256Z,1.43
2022-12-04T02:45:00.237Z,1.44
2022-12-04T02:46:00.317Z,1.44
2022-12-04T02:47:00.212Z,1.44
2022-12-04T02:48:00.203Z,1.44
2022-12-04T02:49:00.177Z,1.45
2022-12-04T02:50:00.251Z,1.45
2022-12-04T02:51:00.171Z,1.45
2022-12-04T02:52:00.159Z,1.45
2022-12-04T02:53:00.157Z,1.45
2022-12-04T02:54:00.122Z,1.45
2022-12-04T02:55:03.978Z,1.46
2022-12-04T02:56:00.134Z,1.46
2022-12-04T02:57:00.083Z,1.45
2022-12-04T02:58:00.077Z,1.44
2022-12-04T02:59:00.091Z,1.44
2022-12-04T03:00:00.044Z,1.44
2022-12-04T03:01:00.177Z,1.44
2022-12-04T03:02:00.170Z,1.45
2022-12-04T03:03:00.121Z,1.46
2022-12-04T03:03:59.991Z,1.46
2022-12-04T03:04:59.991Z,1.46
2022-12-04T03:05:59.975Z,1.46
2022-12-04T03:06:59.961Z,1.46
2022-12-04T03:08:00.000Z,1.46
2022-12-04T03:08:59.927Z,1.46
2022-12-04T03:09:59.912Z,1.45
2022-12-04T03:10:59.932Z,1.44
2022-12-04T03:11:59.899Z,1.43
2022-12-04T03:12:59.887Z,1.43
2022-12-04T03:13:59.860Z,1.44
2022-12-04T03:14:59.852Z,1.44
2022-12-04T03:15:59.845Z,1.44
2022-12-04T03:16:59.894Z,1.44
2022-12-04T03:17:59.850Z,1.43
2022-12-04T03:18:59.807Z,1.43
2022-12-04T03:19:59.784Z,1.42
2022-12-04T03:20:59.803Z,1.41
2022-12-04T03:21:59.766Z,1.41
2022-12-04T03:22:59.762Z,1.41
2022-12-04T03:23:59.746Z,1.41
2022-12-04T03:24:59.725Z,1.41
2022-12-04T03:25:59.713Z,1.41
2022-12-04T03:26:59.718Z,1.42
2022-12-04T03:27:59.691Z,1.42
2022-12-04T03:28:59.777Z,1.42
2022-12-04T03:29:59.664Z,1.43
2022-12-04T03:30:59.756Z,1.43
2022-12-04T03:31:59.631Z,1.43
2022-12-04T03:32:59.629Z,1.43
2022-12-04T03:33:59.610Z,1.43
2022-12-04T03:34:59.614Z,1.43
2022-12-04T03:35:59.582Z,1.44
2022-12-04T03:36:59.580Z,1.45
2022-12-04T03:37:59.564Z,1.46
2022-12-04T03:38:59.544Z,1.47
2022-12-04T03:39:59.547Z,1.48
2022-12-04T03:40:59.531Z,1.48
2022-12-04T03:41:59.509Z,1.49
2022-12-04T03:42:59.496Z,1.49
2022-12-04T03:43:59.479Z,1.47
2022-12-04T03:44:59.473Z,1.47
2022-12-04T03:45:59.522Z,1.46
2022-12-04T03:46:59.467Z,1.45
2022-12-04T03:47:59.431Z,1.45
2022-12-04T03:48:59.421Z,1.44
2022-12-04T03:49:59.402Z,1.43
2022-12-04T03:50:59.406Z,1.42
2022-12-04T03:51:59.389Z,1.40
2022-12-04T03:52:59.372Z,1.39
2022-12-04T03:53:59.354Z,1.39
2022-12-04T03:54:59.368Z,1.40
2022-12-04T03:55:59.335Z,1.41
2022-12-04T03:56:59.367Z,1.41
2022-12-04T03:57:59.323Z,1.42
2022-12-04T03:58:59.298Z,1.42
2022-12-04T03:59:59.675Z,1.41
2022-12-04T04:00:59.282Z,1.41
2022-12-04T04:01:59.330Z,1.40
2022-12-04T04:02:59.310Z,1.38
2022-12-04T04:03:59.230Z,1.36
2022-12-04T04:04:59.235Z,1.35
2022-12-04T04:05:59.229Z,1.34
2022-12-04T04:06:59.194Z,1.34
2022-12-04T04:07:59.267Z,1.34
2022-12-04T04:08:59.182Z,1.35
2022-12-04T04:09:59.151Z,1.35
2022-12-04T04:10:59.143Z,1.35
2022-12-04T04:11:59.128Z,1.34
2022-12-04T04:12:59.121Z,1.34
2022-12-04T04:13:59.118Z,1.34
2022-12-04T04:14:59.139Z,1.34
2022-12-04T04:15:59.153Z,1.34
2022-12-04T04:16:59.068Z,1.34
2022-12-04T04:17:59.060Z,1.33
2022-12-04T04:18:59.042Z,1.31
2022-12-04T04:19:59.038Z,1.29
2022-12-04T04:20:59.014Z,1.28
2022-12-04T04:21:59.001Z,1.28
2022-12-04T04:22:58.996Z,1.29
2022-12-04T04:23:58.976Z,1.30
2022-12-04T04:24:58.966Z,1.32
2022-12-04T04:25:58.957Z,1.34
2022-12-04T04:26:58.956Z,1.34
2022-12-04T04:27:58.921Z,1.35
2022-12-04T04:28:58.921Z,1.35
2022-12-04T04:29:59.229Z,1.36
2022-12-04T04:30:58.932Z,1.37
2022-12-04T04:31:58.897Z,1.37
2022-12-04T04:32:58.878Z,1.37
2022-12-04T04:33:58.853Z,1.37
2022-12-04T04:34:58.848Z,1.38
2022-12-04T04:35:58.874Z,1.38
2022-12-04T04:36:58.823Z,1.39
2022-12-04T04:37:58.818Z,1.40
2022-12-04T04:38:58.791Z,1.41
2022-12-04T04:39:58.780Z,1.42
2022-12-04T04:40:58.771Z,1.42
2022-12-04T04:41:58.775Z,1.43
2022-12-04T04:42:58.742Z,1.44
2022-12-04T04:43:58.736Z,1.45
2022-12-04T04:44:58.709Z,1.46
2022-12-04T04:45:58.733Z,1.46
2022-12-04T04:46:58.686Z,1.46
2022-12-04T04:47:58.679Z,1.46
2022-12-04T04:48:58.703Z,1.46
2022-12-04T04:49:58.742Z,1.46
2022-12-04T04:50:58.643Z,1.46
2022-12-04T04:51:58.620Z,1.46
2022-12-04T04:52:58.609Z,1.46
2022-12-04T04:53:58.603Z,1.45
2022-12-04T04:54:58.592Z,1.44
2022-12-04T04:55:58.574Z,1.44
2022-12-04T04:56:58.564Z,1.44
2022-12-04T04:57:58.543Z,1.44
2022-12-04T04:58:58.540Z,1.43
2022-12-04T04:59:58.735Z,1.43
2022-12-04T05:00:58.522Z,1.43
2022-12-04T05:01:58.541Z,1.43
2022-12-04T05:02:58.592Z,1.44
2022-12-04T05:03:58.471Z,1.44
2022-12-04T05:04:58.457Z,1.43
2022-12-04T05:05:58.461Z,1.43
2022-12-04T05:06:58.454Z,1.41
2022-12-04T05:07:58.501Z,1.40
2022-12-04T05:08:58.406Z,1.38
2022-12-04T05:09:58.742Z,1.37
2022-12-04T05:10:58.385Z,1.35
2022-12-04T05:11:58.366Z,1.34
2022-12-04T05:12:58.392Z,1.32
2022-12-04T05:13:58.340Z,1.31
2022-12-04T05:14:58.335Z,1.29
2022-12-04T05:15:58.367Z,1.29
2022-12-04T05:17:01.837Z,1.29
2022-12-04T05:17:58.298Z,1.30
2022-12-04T05:18:58.304Z,1.32
2022-12-04T05:19:58.540Z,1.33
2022-12-04T05:20:58.259Z,1.35
2022-12-04T05:21:58.252Z,1.36
2022-12-04T05:22:58.232Z,1.37
2022-12-04T05:23:58.214Z,1.38
2022-12-04T05:24:58.225Z,1.38
2022-12-04T05:25:58.189Z,1.38
2022-12-04T05:26:58.181Z,1.38
2022-12-04T05:27:58.179Z,1.39
2022-12-04T05:28:58.169Z,1.39
2022-12-04T05:29:58.438Z,1.39
2022-12-04T05:30:58.181Z,1.39
2022-12-04T05:31:58.142Z,1.39
2022-12-04T05:32:58.111Z,1.40
2022-12-04T05:33:58.097Z,1.40
2022-12-04T05:34:58.076Z,1.40
2022-12-04T05:35:58.065Z,1.39
2022-12-04T05:36:58.068Z,1.39
2022-12-04T05:37:58.038Z,1.39
2022-12-04T05:38:58.048Z,1.40
2022-12-04T05:39:58.428Z,1.40
2022-12-04T05:40:58.016Z,1.41
2022-12-04T05:41:57.999Z,1.43
2022-12-04T05:42:57.976Z,1.44
2022-12-04T05:43:57.960Z,1.45
2022-12-04T05:44:57.962Z,1.46
2022-12-04T05:45:57.947Z,1.47
2022-12-04T05:46:58.000Z,1.47
2022-12-04T05:47:57.917Z,1.47
2022-12-04T05:48:57.900Z,1.47
2022-12-04T05:49:58.175Z,1.46
2022-12-04T05:50:57.887Z,1.46
2022-12-04T05:51:57.869Z,1.45
2022-12-04T05:52:57.864Z,1.45
2022-12-04T05:53:57.835Z,1.44
2022-12-04T05:54:57.843Z,1.44
2022-12-04T05:55:57.832Z,1.43
2022-12-04T05:56:57.800Z,1.43
2022-12-04T05:57:57.794Z,1.42
2022-12-04T05:58:57.808Z,1.42
2022-12-04T05:59:58.030Z,1.42
2022-12-04T06:00:57.753Z,1.43
2022-12-04T06:01:57.764Z,1.44
2022-12-04T06:02:57.808Z,1.44
2022-12-04T06:03:57.725Z,1.45
2022-12-04T06:04:57.715Z,1.45
2022-12-04T06:05:57.693Z,1.45
2022-12-04T06:06:57.681Z,1.45
2022-12-04T06:07:57.742Z,1.46
2022-12-04T06:08:57.651Z,1.46
2022-12-04T06:09:57.979Z,1.46
2022-12-04T06:10:57.657Z,1.45
2022-12-04T06:11:57.647Z,1.45
2022-12-04T06:12:57.613Z,1.45
2022-12-04T06:13:57.619Z,1.46
2022-12-04T06:14:57.574Z,1.46
2022-12-04T06:15:57.582Z,1.46
2022-12-04T06:16:57.616Z,1.46
2022-12-04T06:17:57.531Z,1.45
2022-12-04T06:18:57.543Z,1.43
2022-12-04T06:19:57.940Z,1.42
2022-12-04T06:20:57.585Z,1.42
2022-12-04T06:21:57.485Z,1.42
2022-12-04T06:22:57.472Z,1.42
2022-12-04T06:23:57.456Z,1.43
2022-12-04T06:24:57.505Z,1.44
2022-12-04T06:26:02.172Z,1.44
2022-12-04T06:27:26.259Z,1.44
2022-12-04T06:27:57.414Z,1.44
2022-12-04T06:28:57.397Z,1.44
2022-12-04T06:29:57.721Z,1.43
2022-12-04T06:30:57.372Z,1.43
2022-12-04T06:31:57.422Z,1.43
2022-12-04T06:32:57.366Z,1.43
2022-12-04T06:33:57.330Z,1.43
2022-12-04T06:34:57.341Z,1.44
2022-12-04T06:35:57.306Z,1.44
2022-12-04T06:36:57.305Z,1.44
2022-12-04T06:37:57.281Z,1.44
2022-12-04T06:38:57.277Z,1.44
2022-12-04T06:39:57.549Z,1.44
2022-12-04T06:40:57.249Z,1.44
2022-12-04T06:41:57.258Z,1.44
2022-12-04T06:42:57.232Z,1.44
2022-12-04T06:43:57.212Z,1.45
2022-12-04T06:44:57.282Z,1.46
2022-12-04T06:45:57.228Z,1.47
2022-12-04T06:47:00.740Z,1.48
2022-12-04T06:47:57.241Z,1.49
2022-12-04T06:48:57.176Z,1.50
2022-12-04T06:49:57.384Z,1.50
2022-12-04T06:50:57.143Z,1.51
2022-12-04T06:51:57.104Z,1.51
2022-12-04T06:52:57.098Z,1.51
2022-12-04T06:53:57.091Z,1.51
2022-12-04T06:54:57.061Z,1.52
2022-12-04T06:55:57.066Z,1.52
2022-12-04T06:56:57.034Z,1.52
2022-12-04T06:57:57.027Z,1.53
2022-12-04T06:58:57.023Z,1.54
2022-12-04T06:59:57.429Z,1.55
2022-12-04T07:00:57.006Z,1.55
2022-12-04T07:01:57.035Z,1.55
2022-12-04T07:02:56.959Z,1.55
2022-12-04T07:03:56.967Z,1.55
2022-12-04T07:04:56.959Z,1.55
2022-12-04T07:05:56.942Z,1.55
2022-12-04T07:06:56.913Z,1.55
2022-12-04T07:07:56.979Z,1.54
2022-12-04T07:08:56.916Z,1.54
2022-12-04T07:09:57.123Z,1.54
2022-12-04T07:10:59.300Z,1.55
2022-12-04T07:11:56.848Z,1.55
2022-12-04T07:12:56.833Z,1.56
2022-12-04T07:13:56.827Z,1.56
2022-12-04T07:14:56.812Z,1.56
2022-12-04T07:15:56.795Z,1.55
2022-12-04T07:16:56.936Z,1.54
2022-12-04T07:17:56.765Z,1.53
2022-12-04T07:18:56.834Z,1.53
2022-12-04T07:19:57.025Z,1.53
2022-12-04T07:20:56.726Z,1.54
2022-12-04T07:21:56.718Z,1.55
2022-12-04T07:22:56.718Z,1.56
2022-12-04T07:23:56.701Z,1.56
2022-12-04T07:24:56.685Z,1.57
2022-12-04T07:25:56.664Z,1.58
2022-12-04T07:26:56.658Z,1.58
2022-12-04T07:27:56.641Z,1.59
2022-12-04T07:28:56.643Z,1.59
2022-12-04T07:29:56.903Z,1.60
2022-12-04T07:30:56.613Z,1.61
2022-12-04T07:31:56.677Z,1.60
2022-12-04T07:32:56.616Z,1.59
2022-12-04T07:33:56.564Z,1.58
2022-12-04T07:34:56.573Z,1.58
2022-12-04T07:35:56.563Z,1.57
2022-12-04T07:36:56.533Z,1.56
2022-12-04T07:37:56.521Z,1.55
2022-12-04T07:38:56.526Z,1.54
2022-12-04T07:39:56.808Z,1.53
2022-12-04T07:40:56.507Z,1.51
2022-12-04T07:41:56.521Z,1.49
2022-12-04T07:42:56.451Z,1.48
2022-12-04T07:43:56.561Z,1.47
2022-12-04T07:44:56.426Z,1.46
2022-12-04T07:45:56.531Z,1.45
2022-12-04T07:46:56.407Z,1.44
2022-12-04T07:47:56.409Z,1.42
2022-12-04T07:48:56.377Z,1.41
2022-12-04T07:49:56.601Z,1.41
2022-12-04T07:50:56.347Z,1.41
2022-12-04T07:51:56.338Z,1.41
2022-12-04T07:52:56.358Z,1.42
2022-12-04T07:53:57.164Z,1.44
2022-12-04T07:54:56.294Z,1.45
2022-12-04T07:55:56.287Z,1.46
2022-12-04T07:56:56.273Z,1.46
2022-12-04T07:57:56.264Z,1.46
2022-12-04T07:58:56.283Z,1.46
2022-12-04T07:59:56.527Z,1.47
2022-12-04T08:00:56.258Z,1.48
2022-12-04T08:01:56.307Z,1.49
2022-12-04T08:02:56.201Z,1.50
2022-12-04T08:03:56.203Z,1.50
2022-12-04T08:04:56.254Z,1.49
2022-12-04T08:05:56.163Z,1.48
2022-12-04T08:06:56.147Z,1.48
2022-12-04T08:07:56.186Z,1.48
2022-12-04T08:08:56.130Z,1.48
2022-12-04T08:09:56.464Z,1.49
2022-12-04T08:10:56.094Z,1.50
2022-12-04T08:11:56.089Z,1.51
2022-12-04T08:12:56.066Z,1.52
2022-12-04T08:13:56.080Z,1.52
2022-12-04T08:14:56.053Z,1.52
2022-12-04T08:15:56.028Z,1.52
2022-12-04T08:16:56.072Z,1.52
2022-12-04T08:17:56.009Z,1.52
2022-12-04T08:18:55.999Z,1.52
2022-12-04T08:19:56.307Z,1.53
2022-12-04T08:20:55.975Z,1.53
2022-12-04T08:21:55.971Z,1.54
2022-12-04T08:22:55.943Z,1.55
2022-12-04T08:23:55.933Z,1.57
2022-12-04T08:24:55.914Z,1.58
2022-12-04T08:25:55.910Z,1.59
2022-12-04T08:26:55.907Z,1.60
2022-12-04T08:27:55.911Z,1.60
2022-12-04T08:28:55.876Z,1.61
2022-12-04T08:29:56.136Z,1.62
2022-12-04T08:30:55.930Z,1.62
2022-12-04T08:31:55.856Z,1.62
2022-12-04T08:32:55.820Z,1.62
2022-12-04T08:33:55.821Z,1.62
2022-12-04T08:34:56.186Z,1.63
2022-12-04T08:35:55.800Z,1.64
2022-12-04T08:36:55.786Z,1.65
2022-12-04T08:37:55.757Z,1.67
2022-12-04T08:38:55.802Z,1.68
2022-12-04T08:39:56.056Z,1.70
2022-12-04T08:40:55.708Z,1.71
2022-12-04T08:41:57.244Z,1.72
2022-12-04T08:42:55.727Z,1.73
2022-12-04T08:43:55.798Z,1.73
2022-12-04T08:44:55.694Z,1.74
2022-12-04T08:45:55.698Z,1.75
2022-12-04T08:46:55.644Z,1.76
2022-12-04T08:47:55.634Z,1.76
2022-12-04T08:48:55.620Z,1.77
2022-12-04T08:49:55.985Z,1.77
2022-12-04T08:50:55.597Z,1.78
2022-12-04T08:51:55.787Z,1.79
2022-12-04T08:52:55.585Z,1.79
2022-12-04T08:53:55.574Z,1.80
2022-12-04T08:54:55.547Z,1.80
2022-12-04T08:55:55.527Z,1.80
2022-12-04T08:56:55.521Z,1.79
2022-12-04T08:57:55.583Z,1.79
2022-12-04T08:58:55.521Z,1.79
2022-12-04T08:59:55.796Z,1.79
2022-12-04T09:00:55.481Z,1.80
2022-12-04T09:01:55.546Z,1.82
2022-12-04T09:02:55.441Z,1.83
2022-12-04T09:03:55.512Z,1.84
2022-12-04T09:04:55.517Z,1.84
2022-12-04T09:05:55.424Z,1.85
2022-12-04T09:06:55.397Z,1.86
2022-12-04T09:07:55.431Z,1.86
2022-12-04T09:08:55.421Z,1.86
2022-12-04T09:09:55.532Z,1.85
2022-12-04T09:10:55.339Z,1.84
2022-12-04T09:11:55.327Z,1.85
2022-12-04T09:12:55.306Z,1.85
2022-12-04T09:13:55.355Z,1.85
2022-12-04T09:14:55.308Z,1.86
2022-12-04T09:15:55.335Z,1.87
2022-12-04T09:16:55.287Z,1.88
2022-12-04T09:17:55.326Z,1.90
2022-12-04T09:18:55.428Z,1.91
2022-12-04T09:20:00.549Z,1.92
2022-12-04T09:20:55.237Z,1.92
2022-12-04T09:21:55.224Z,1.91
2022-12-04T09:23:04.344Z,1.90
2022-12-04T09:25:06.749Z,3.06
2022-12-04T09:26:07.227Z,2.61
2022-12-04T09:27:12.855Z,2.33
2022-12-04T09:28:07.109Z,2.17
2022-12-04T09:29:07.111Z,2.08
2022-12-04T09:30:07.083Z,2.03
2022-12-04T09:31:07.092Z,1.99
2022-12-04T09:32:07.058Z,1.97
2022-12-04T09:33:07.029Z,1.95
2022-12-04T09:34:07.080Z,1.95
2022-12-04T09:35:07.002Z,1.96
2022-12-04T09:36:06.991Z,1.96
2022-12-04T09:37:06.979Z,1.97
2022-12-04T09:38:06.971Z,1.99
2022-12-04T09:39:06.973Z,2.00
2022-12-04T09:40:06.954Z,2.02
2022-12-04T09:41:06.927Z,2.02
2022-12-04T09:42:06.932Z,2.03
2022-12-04T09:43:06.900Z,2.04
2022-12-04T09:44:06.892Z,2.05
2022-12-04T09:45:06.876Z,2.06
2022-12-04T09:46:06.964Z,2.06
2022-12-04T09:47:06.950Z,2.06
2022-12-04T09:48:06.838Z,2.06
2022-12-04T09:49:06.820Z,2.07
2022-12-04T09:50:06.832Z,2.07
2022-12-04T09:51:06.814Z,2.08
2022-12-04T09:52:06.797Z,2.09
2022-12-04T09:53:06.772Z,2.10
2022-12-04T09:54:06.777Z,2.12
2022-12-04T09:55:06.764Z,2.13
2022-12-04T09:56:06.765Z,2.14
2022-12-04T09:57:06.742Z,2.14
2022-12-04T09:58:06.719Z,2.14
2022-12-04T09:59:06.700Z,2.14
2022-12-04T10:00:06.690Z,2.13
2022-12-04T10:01:06.666Z,2.13
2022-12-04T10:02:06.713Z,2.13
2022-12-04T10:03:06.894Z,2.13
2022-12-04T10:04:06.899Z,2.12
2022-12-04T10:05:06.618Z,2.12
2022-12-04T10:06:06.609Z,2.12
2022-12-04T10:07:06.606Z,2.11
2022-12-04T10:08:06.673Z,2.11
2022-12-04T10:09:06.581Z,2.11
2022-12-04T10:10:06.575Z,2.10
2022-12-04T10:11:06.544Z,2.10
2022-12-04T10:12:06.558Z,2.09
2022-12-04T10:13:06.533Z,2.09
2022-12-04T10:14:06.512Z,2.10
2022-12-04T10:15:06.498Z,2.11
2022-12-04T10:16:06.542Z,2.12
2022-12-04T10:17:06.460Z,2.12
2022-12-04T10:18:06.462Z,2.14
2022-12-04T10:19:06.434Z,2.15
2022-12-04T10:20:06.425Z,2.16
2022-12-04T10:21:06.417Z,2.16
2022-12-04T10:22:06.442Z,2.17
2022-12-04T10:23:10.675Z,2.17
2022-12-04T10:24:06.391Z,2.17
2022-12-04T10:25:06.387Z,2.17
2022-12-04T10:26:06.354Z,2.18
2022-12-04T10:27:06.343Z,2.18
2022-12-04T10:28:06.335Z,2.19
2022-12-04T10:29:06.328Z,2.20
2022-12-04T10:30:06.297Z,2.21
2022-12-04T10:31:06.369Z,2.22
2022-12-04T10:32:06.275Z,2.22
2022-12-04T10:33:06.286Z,2.23
2022-12-04T10:34:06.240Z,2.24
2022-12-04T10:35:06.224Z,2.25
2022-12-04T10:36:06.252Z,2.26
2022-12-04T10:37:06.200Z,2.27
2022-12-04T10:38:06.223Z,2.27
2022-12-04T10:39:06.174Z,2.28
2022-12-04T10:40:06.189Z,2.29
2022-12-04T10:41:11.568Z,2.30
2022-12-04T10:42:06.164Z,2.31
2022-12-04T10:43:06.121Z,2.32
2022-12-04T10:44:06.122Z,2.33
2022-12-04T10:45:06.222Z,2.34
2022-12-04T10:46:06.172Z,2.35
2022-12-04T10:47:06.209Z,2.36
2022-12-04T10:48:06.093Z,2.37
2022-12-04T10:49:06.089Z,2.37
2022-12-04T10:50:06.036Z,2.37
2022-12-04T10:51:06.018Z,2.37
2022-12-04T10:52:06.033Z,2.38
2022-12-04T10:53:09.481Z,2.38
2022-12-04T10:54:06.017Z,2.38
2022-12-04T10:55:05.988Z,2.38
2022-12-04T10:56:05.974Z,2.39
2022-12-04T10:57:05.949Z,2.39
2022-12-04T10:58:05.932Z,2.39
2022-12-04T10:59:05.931Z,2.39
2022-12-04T11:00:05.903Z,2.40
2022-12-04T11:01:05.886Z,2.40
2022-12-04T11:02:07.181Z,2.40
2022-12-04T11:03:05.913Z,2.40
2022-12-04T11:04:05.961Z,2.40
2022-12-04T11:05:05.965Z,2.40
2022-12-04T11:06:05.838Z,2.41
2022-12-04T11:07:05.861Z,2.41
2022-12-04T11:08:05.895Z,2.42
2022-12-04T11:09:05.811Z,2.43
2022-12-04T11:10:05.782Z,2.43
2022-12-04T11:11:05.792Z,2.43
2022-12-04T11:12:05.749Z,2.43
2022-12-04T11:13:05.741Z,2.44
2022-12-04T11:14:05.725Z,2.44
2022-12-04T11:15:05.708Z,2.45
2022-12-04T11:16:05.799Z,2.45
2022-12-04T11:17:05.686Z,2.44
2022-12-04T11:18:05.679Z,2.44
2022-12-04T11:19:05.659Z,2.43
2022-12-04T11:20:05.744Z,2.43
2022-12-04T11:21:05.643Z,2.44
2022-12-04T11:22:05.629Z,2.44
2022-12-04T11:23:05.637Z,2.45
2022-12-04T11:24:05.611Z,2.46
2022-12-04T11:25:05.579Z,2.46
2022-12-04T11:26:06.552Z,2.46
2022-12-04T11:27:05.552Z,2.45
2022-12-04T11:28:05.541Z,2.44
2022-12-04T11:29:05.542Z,2.43
2022-12-04T11:30:05.522Z,2.41
2022-12-04T11:31:05.572Z,2.41
2022-12-04T11:32:07.850Z,2.41
2022-12-04T11:33:05.477Z,2.41
2022-12-04T11:34:05.472Z,2.41
2022-12-04T11:35:05.468Z,2.42
2022-12-04T11:36:05.448Z,2.42
2022-12-04T11:37:05.428Z,2.43
2022-12-04T11:38:05.412Z,2.44
2022-12-04T11:39:05.405Z,2.44
2022-12-04T11:40:05.400Z,2.45
2022-12-04T11:41:05.382Z,2.46
2022-12-04T11:42:05.368Z,2.45
2022-12-04T11:43:05.356Z,2.43
2022-12-04T11:44:05.347Z,2.42
2022-12-04T11:45:05.319Z,2.40
2022-12-04T11:46:05.308Z,2.39
2022-12-04T11:47:05.440Z,2.39
2022-12-04T11:48:05.282Z,2.39
2022-12-04T11:49:05.282Z,2.40
2022-12-04T11:50:05.262Z,2.41
2022-12-04T11:51:05.244Z,2.43
2022-12-04T11:52:05.260Z,2.44
2022-12-04T11:53:05.234Z,2.45
2022-12-04T11:54:05.211Z,2.47
2022-12-04T11:55:05.195Z,2.48
2022-12-04T11:56:05.207Z,2.50
2022-12-04T11:57:05.184Z,2.51
2022-12-04T11:58:05.157Z,2.52
2022-12-04T11:59:05.139Z,2.54
2022-12-04T12:00:05.135Z,2.54
2022-12-04T12:01:05.112Z,2.54
2022-12-04T12:02:05.212Z,2.54
2022-12-04T12:03:05.237Z,2.54
2022-12-04T12:04:05.077Z,2.54
2022-12-04T12:05:05.072Z,2.54
2022-12-04T12:06:05.051Z,2.55
2022-12-04T12:07:05.034Z,2.55
2022-12-04T12:08:05.035Z,2.55
2022-12-04T12:09:05.034Z,2.55
2022-12-04T12:10:05.035Z,2.56
2022-12-04T12:11:04.982Z,2.56
2022-12-04T12:12:04.975Z,2.56
2022-12-04T12:13:04.961Z,2.56
2022-12-04T12:14:04.969Z,2.57
2022-12-04T12:15:04.940Z,2.57
2022-12-04T12:16:04.984Z,2.57
2022-12-04T12:17:04.902Z,2.57
2022-12-04T12:18:04.926Z,2.56
2022-12-04T12:19:04.894Z,2.56
2022-12-04T12:20:04.892Z,2.56
2022-12-04T12:21:04.852Z,2.56
2022-12-04T12:22:05.661Z,2.56
2022-12-04T12:23:04.838Z,2.56
2022-12-04T12:24:04.843Z,2.56
2022-12-04T12:25:04.901Z,2.55
2022-12-04T12:26:04.794Z,2.55
2022-12-04T12:27:04.798Z,2.55
2022-12-04T12:28:04.795Z,2.55
2022-12-04T12:29:04.760Z,2.55
2022-12-04T12:30:04.747Z,2.56
2022-12-04T12:31:06.214Z,2.57
2022-12-04T12:32:04.781Z,2.57
2022-12-04T12:33:04.705Z,2.58
2022-12-04T12:34:04.684Z,2.59
2022-12-04T12:35:04.670Z,2.60
2022-12-04T12:36:04.691Z,2.61
2022-12-04T12:37:04.657Z,2.62
2022-12-04T12:38:04.645Z,2.62
2022-12-04T12:39:04.621Z,2.63
2022-12-04T12:40:04.684Z,2.64
2022-12-04T12:41:04.596Z,2.65
2022-12-04T12:42:04.581Z,2.66
2022-12-04T12:43:04.701Z,2.67
2022-12-04T12:44:04.570Z,2.67
2022-12-04T12:45:04.552Z,2.67
2022-12-04T12:46:04.643Z,2.67
2022-12-04T12:47:04.519Z,2.67
2022-12-04T12:48:04.526Z,2.67
2022-12-04T12:49:04.488Z,2.67
2022-12-04T12:50:04.481Z,2.66
2022-12-04T12:51:28.676Z,2.65
2022-12-04T12:52:04.459Z,2.65
2022-12-04T12:53:04.436Z,2.65
2022-12-04T12:54:04.438Z,2.64
2022-12-04T12:55:04.408Z,2.64
2022-12-04T12:56:04.402Z,2.64
2022-12-04T12:57:04.391Z,2.63
2022-12-04T12:58:04.386Z,2.63
2022-12-04T12:59:04.380Z,2.63
2022-12-04T13:00:04.362Z,2.64
2022-12-04T13:01:04.382Z,2.64
2022-12-04T13:02:04.449Z,2.65
2022-12-04T13:03:04.423Z,2.66
2022-12-04T13:04:04.295Z,2.67
2022-12-04T13:05:04.294Z,2.68
2022-12-04T13:06:04.271Z,2.70
2022-12-04T13:07:04.259Z,2.71
2022-12-04T13:08:04.337Z,2.71
2022-12-04T13:09:04.260Z,2.72
2022-12-04T13:10:04.222Z,2.73
2022-12-04T13:11:04.233Z,2.73
2022-12-04T13:12:04.193Z,2.73
2022-12-04T13:13:04.188Z,2.73
2022-12-04T13:14:04.196Z,2.73
2022-12-04T13:15:04.160Z,2.73
2022-12-04T13:16:04.148Z,2.73
2022-12-04T13:17:04.204Z,2.72
2022-12-04T13:18:04.118Z,2.72
2022-12-04T13:19:04.109Z,2.73
2022-12-04T13:20:09.524Z,2.73